Aérodrome :
LOGIN :

S'inscrire | Disclaimer

   EN    FR    IT 

 










Légende :    VFR   VFR Marginal   IFR   IFR Intensif   IFR Très Intensif
Visi : 
Plafond : 
>= 8 km
>= 3000ft
5 à 8 km
1000 à 3000 ft
1500m à 5 km
500 à 1000 ft
800 à 1500m
200 à 500 ft
< 800m
< 200 ft
Symboles :   Orages  Brouillard  Fortes neiges  Fortes précipitations  Vent > 20 kt
SIGMETs :   Divers  Orages  Givrage  Turbulence  Onde Orograph.  Cendres Volcan.







- Altitude de l'aérodrome : 174 ft
- Code IATA : RYG


ENRY - Moss , Rygge

DERNIER METAR :
  • 201850Z AUTO 09001KT 9999NDV OVC038/// M06/M08 Q1016

METARs EXPIRÉS :
  • 201820Z AUTO 08004KT 9999NDV OVC040/// M07/M08 Q1017
  • 201750Z AUTO 07003KT 9999NDV OVC046/// M07/M08 Q1017
  • 201720Z AUTO VRB02KT 9999NDV BKN053/// OVC078/// M07/M08 Q1017
  • 201650Z AUTO 06002KT 9999NDV FEW084/// M07/M08 Q1017
  • 201620Z AUTO 07001KT 9999NDV SCT048/// M07/M08 Q1017

TAF TAF ENRY
Valide du 20 à 18h jusqu'au 21 à 18h UTC


2018/2118 VRB05KT 9999 FEW020 BKN040
BECMG 2100/2102 4000 -SN VV014
TEMPO 2102/2108 2000 -SN SG BR OVC003
BECMG 2108/2110 01010KT 9999 FEW012
PROB30
TEMPO 2108/2112 BKN008
Pas de NOTAMs connus pour ce terrain.



MET'MAP, la Météo Aéronautique d'un coup d'oeil ! - Copyright ORBIFLY Décembre 2007 - Disclaimer

ORBIFLY MET'MAP TEAM :

Programmation & Développement : Alexandra Zaïnal
Conception & Développement : Baudouin d'Aumeries
Co-Programmation & Développement : Marc-Olivier Méhu
Soutien technique & logistique : Manuel Goepfert

Contact : metmap@orbifly.com




SOURCES & CREDITS :

   NOAA